sensor_id;sensor_type;location;lat;lon;timestamp;temperature;humidity
34406;DHT22;20658;45.630;8.886;2023-05-10T00:00:58;13.60;99.90
34406;DHT22;20658;45.630;8.886;2023-05-10T00:03:26;13.60;99.90
34406;DHT22;20658;45.630;8.886;2023-05-10T00:05:54;13.60;99.90
34406;DHT22;20658;45.630;8.886;2023-05-10T00:08:23;13.60;99.90
34406;DHT22;20658;45.630;8.886;2023-05-10T00:10:52;13.50;99.90
34406;DHT22;20658;45.630;8.886;2023-05-10T00:13:21;13.50;99.90
34406;DHT22;20658;45.630;8.886;2023-05-10T00:15:51;13.50;99.90
34406;DHT22;20658;45.630;8.886;2023-05-10T00:18:20;13.60;99.90
34406;DHT22;20658;45.630;8.886;2023-05-10T00:20:49;13.50;99.90
34406;DHT22;20658;45.630;8.886;2023-05-10T00:23:17;13.50;99.90
34406;DHT22;20658;45.630;8.886;2023-05-10T00:25:46;13.50;99.90
34406;DHT22;20658;45.630;8.886;2023-05-10T00:28:14;13.40;99.90
34406;DHT22;20658;45.630;8.886;2023-05-10T00:30:43;13.40;99.90
34406;DHT22;20658;45.630;8.886;2023-05-10T00:33:13;13.40;99.90
34406;DHT22;20658;45.630;8.886;2023-05-10T00:35:41;13.40;99.90
34406;DHT22;20658;45.630;8.886;2023-05-10T00:38:10;13.50;99.90
34406;DHT22;20658;45.630;8.886;2023-05-10T00:40:39;13.40;99.90
34406;DHT22;20658;45.630;8.886;2023-05-10T00:43:14;13.40;99.90
34406;DHT22;20658;45.630;8.886;2023-05-10T00:45:48;13.40;99.90
34406;DHT22;20658;45.630;8.886;2023-05-10T00:48:18;13.40;99.90
34406;DHT22;20658;45.630;8.886;2023-05-10T00:50:52;13.40;99.90
34406;DHT22;20658;45.630;8.886;2023-05-10T00:53:20;13.40;99.90
34406;DHT22;20658;45.630;8.886;2023-05-10T00:55:50;13.40;99.90
34406;DHT22;20658;45.630;8.886;2023-05-10T00:58:18;13.40;99.90
34406;DHT22;20658;45.630;8.886;2023-05-10T01:00:47;13.40;99.90
34406;DHT22;20658;45.630;8.886;2023-05-10T01:03:17;13.40;99.90
34406;DHT22;20658;45.630;8.886;2023-05-10T01:05:47;13.40;99.90
34406;DHT22;20658;45.630;8.886;2023-05-10T01:08:15;13.40;99.90
34406;DHT22;20658;45.630;8.886;2023-05-10T01:10:44;13.40;99.90
34406;DHT22;20658;45.630;8.886;2023-05-10T01:13:13;13.30;99.90
34406;DHT22;20658;45.630;8.886;2023-05-10T01:15:47;13.30;99.90
34406;DHT22;20658;45.630;8.886;2023-05-10T01:18:18;13.30;99.90
34406;DHT22;20658;45.630;8.886;2023-05-10T01:20:52;13.30;99.90
34406;DHT22;20658;45.630;8.886;2023-05-10T01:23:45;13.30;99.90
34406;DHT22;20658;45.630;8.886;2023-05-10T01:26:43;13.20;99.90
34406;DHT22;20658;45.630;8.886;2023-05-10T01:30:03;13.10;99.90
34406;DHT22;20658;45.630;8.886;2023-05-10T01:32:40;13.10;99.90
34406;DHT22;20658;45.630;8.886;2023-05-10T01:35:17;13.10;99.90
34406;DHT22;20658;45.630;8.886;2023-05-10T01:37:59;13.00;99.90
34406;DHT22;20658;45.630;8.886;2023-05-10T01:40:37;13.00;99.90
34406;DHT22;20658;45.630;8.886;2023-05-10T01:43:13;13.10;99.90
34406;DHT22;20658;45.630;8.886;2023-05-10T01:45:54;13.00;99.90
34406;DHT22;20658;45.630;8.886;2023-05-10T01:48:30;13.00;99.90
34406;DHT22;20658;45.630;8.886;2023-05-10T01:50:59;13.00;99.90
34406;DHT22;20658;45.630;8.886;2023-05-10T01:53:29;12.90;99.90
34406;DHT22;20658;45.630;8.886;2023-05-10T01:55:59;12.80;99.90
34406;DHT22;20658;45.630;8.886;2023-05-10T01:58:31;12.80;99.90
34406;DHT22;20658;45.630;8.886;2023-05-10T02:01:03;12.70;99.90
34406;DHT22;20658;45.630;8.886;2023-05-10T02:03:35;12.70;99.90
34406;DHT22;20658;45.630;8.886;2023-05-10T02:06:06;12.70;99.90
34406;DHT22;20658;45.630;8.886;2023-05-10T02:08:36;12.60;99.90
34406;DHT22;20658;45.630;8.886;2023-05-10T02:11:05;12.60;99.90
34406;DHT22;20658;45.630;8.886;2023-05-10T02:13:35;12.50;99.90
34406;DHT22;20658;45.630;8.886;2023-05-10T02:16:07;12.50;99.90
34406;DHT22;20658;45.630;8.886;2023-05-10T02:18:40;12.50;99.90
34406;DHT22;20658;45.630;8.886;2023-05-10T02:21:10;12.40;99.90
34406;DHT22;20658;45.630;8.886;2023-05-10T02:23:40;12.40;99.90
34406;DHT22;20658;45.630;8.886;2023-05-10T02:26:14;12.40;99.90
34406;DHT22;20658;45.630;8.886;2023-05-10T02:28:44;12.40;99.90
34406;DHT22;20658;45.630;8.886;2023-05-10T02:31:14;12.40;99.90
34406;DHT22;20658;45.630;8.886;2023-05-10T02:33:44;12.30;99.90
34406;DHT22;20658;45.630;8.886;2023-05-10T02:36:15;12.30;99.90
34406;DHT22;20658;45.630;8.886;2023-05-10T02:38:44;12.30;99.90
34406;DHT22;20658;45.630;8.886;2023-05-10T02:41:14;12.30;99.90
34406;DHT22;20658;45.630;8.886;2023-05-10T02:43:43;12.20;99.90
34406;DHT22;20658;45.630;8.886;2023-05-10T02:46:17;12.30;99.90
34406;DHT22;20658;45.630;8.886;2023-05-10T02:48:47;12.20;99.90
34406;DHT22;20658;45.630;8.886;2023-05-10T02:51:16;12.20;99.90
34406;DHT22;20658;45.630;8.886;2023-05-10T02:53:47;12.20;99.90
34406;DHT22;20658;45.630;8.886;2023-05-10T02:56:23;12.30;99.90
34406;DHT22;20658;45.630;8.886;2023-05-10T02:58:53;12.20;99.90
34406;DHT22;20658;45.630;8.886;2023-05-10T03:01:27;12.20;99.90
34406;DHT22;20658;45.630;8.886;2023-05-10T03:03:59;12.20;99.90
34406;DHT22;20658;45.630;8.886;2023-05-10T03:06:32;12.30;99.90
34406;DHT22;20658;45.630;8.886;2023-05-10T03:09:03;12.30;99.90
34406;DHT22;20658;45.630;8.886;2023-05-10T03:11:47;12.20;99.90
34406;DHT22;20658;45.630;8.886;2023-05-10T03:14:33;12.20;99.90
34406;DHT22;20658;45.630;8.886;2023-05-10T03:17:17;12.20;99.90
34406;DHT22;20658;45.630;8.886;2023-05-10T03:19:54;12.20;99.90
34406;DHT22;20658;45.630;8.886;2023-05-10T03:22:26;12.30;99.90
34406;DHT22;20658;45.630;8.886;2023-05-10T03:24:58;12.30;99.90
34406;DHT22;20658;45.630;8.886;2023-05-10T03:27:29;12.20;99.90
34406;DHT22;20658;45.630;8.886;2023-05-10T03:30:00;12.20;99.90
34406;DHT22;20658;45.630;8.886;2023-05-10T03:32:34;12.30;99.90
34406;DHT22;20658;45.630;8.886;2023-05-10T03:35:07;12.30;99.90
34406;DHT22;20658;45.630;8.886;2023-05-10T03:37:41;12.30;99.90
34406;DHT22;20658;45.630;8.886;2023-05-10T03:40:15;12.30;99.90
34406;DHT22;20658;45.630;8.886;2023-05-10T03:42:43;12.30;99.90
34406;DHT22;20658;45.630;8.886;2023-05-10T03:45:12;12.30;99.90
34406;DHT22;20658;45.630;8.886;2023-05-10T03:47:40;12.30;99.90
34406;DHT22;20658;45.630;8.886;2023-05-10T03:50:10;12.30;99.90
34406;DHT22;20658;45.630;8.886;2023-05-10T03:52:39;12.30;99.90
34406;DHT22;20658;45.630;8.886;2023-05-10T03:55:12;12.30;99.90
34406;DHT22;20658;45.630;8.886;2023-05-10T03:57:41;12.30;99.90
34406;DHT22;20658;45.630;8.886;2023-05-10T04:00:10;12.30;99.90
34406;DHT22;20658;45.630;8.886;2023-05-10T04:02:49;12.30;99.90
34406;DHT22;20658;45.630;8.886;2023-05-10T04:05:20;12.30;99.90
34406;DHT22;20658;45.630;8.886;2023-05-10T04:07:51;12.20;99.90
34406;DHT22;20658;45.630;8.886;2023-05-10T04:10:25;12.20;99.90
34406;DHT22;20658;45.630;8.886;2023-05-10T04:12:53;12.20;99.90
34406;DHT22;20658;45.630;8.886;2023-05-10T04:15:27;12.20;99.90
34406;DHT22;20658;45.630;8.886;2023-05-10T04:18:00;12.20;99.90
34406;DHT22;20658;45.630;8.886;2023-05-10T04:20:35;12.20;99.90
34406;DHT22;20658;45.630;8.886;2023-05-10T04:23:08;12.20;99.90
34406;DHT22;20658;45.630;8.886;2023-05-10T04:25:42;12.20;99.90
34406;DHT22;20658;45.630;8.886;2023-05-10T04:28:15;12.10;99.90
34406;DHT22;20658;45.630;8.886;2023-05-10T04:30:48;12.10;99.90
34406;DHT22;20658;45.630;8.886;2023-05-10T04:33:22;12.10;99.90
34406;DHT22;20658;45.630;8.886;2023-05-10T04:35:56;12.10;99.90
34406;DHT22;20658;45.630;8.886;2023-05-10T04:38:30;12.10;99.90
34406;DHT22;20658;45.630;8.886;2023-05-10T04:41:04;12.10;99.90
34406;DHT22;20658;45.630;8.886;2023-05-10T04:43:39;12.10;99.90
34406;DHT22;20658;45.630;8.886;2023-05-10T04:46:12;12.10;99.90
34406;DHT22;20658;45.630;8.886;2023-05-10T04:48:46;12.10;99.90
34406;DHT22;20658;45.630;8.886;2023-05-10T04:51:20;12.10;99.90
34406;DHT22;20658;45.630;8.886;2023-05-10T04:53:54;12.10;99.90
34406;DHT22;20658;45.630;8.886;2023-05-10T04:56:27;12.10;99.90
34406;DHT22;20658;45.630;8.886;2023-05-10T04:59:01;12.10;99.90
34406;DHT22;20658;45.630;8.886;2023-05-10T05:01:34;12.10;99.90
34406;DHT22;20658;45.630;8.886;2023-05-10T05:04:07;12.20;99.90
34406;DHT22;20658;45.630;8.886;2023-05-10T05:06:42;12.20;99.90
34406;DHT22;20658;45.630;8.886;2023-05-10T05:09:15;12.20;99.90
34406;DHT22;20658;45.630;8.886;2023-05-10T05:11:49;12.20;99.90
34406;DHT22;20658;45.630;8.886;2023-05-10T05:14:22;12.20;99.90
34406;DHT22;20658;45.630;8.886;2023-05-10T05:16:56;12.10;99.90
34406;DHT22;20658;45.630;8.886;2023-05-10T05:19:31;12.20;99.90
34406;DHT22;20658;45.630;8.886;2023-05-10T05:22:01;12.20;99.90
34406;DHT22;20658;45.630;8.886;2023-05-10T05:24:35;12.20;99.90
34406;DHT22;20658;45.630;8.886;2023-05-10T05:27:09;12.20;99.90
34406;DHT22;20658;45.630;8.886;2023-05-10T05:29:43;12.20;99.90
34406;DHT22;20658;45.630;8.886;2023-05-10T05:32:16;12.30;99.90
34406;DHT22;20658;45.630;8.886;2023-05-10T05:34:49;12.30;99.90
34406;DHT22;20658;45.630;8.886;2023-05-10T05:37:24;12.30;99.90
34406;DHT22;20658;45.630;8.886;2023-05-10T05:39:58;12.30;99.90
34406;DHT22;20658;45.630;8.886;2023-05-10T05:42:28;12.40;99.90
34406;DHT22;20658;45.630;8.886;2023-05-10T05:44:56;12.40;99.90
34406;DHT22;20658;45.630;8.886;2023-05-10T05:47:30;12.30;99.90
34406;DHT22;20658;45.630;8.886;2023-05-10T05:50:04;12.40;99.90
34406;DHT22;20658;45.630;8.886;2023-05-10T05:52:39;12.10;99.90
34406;DHT22;20658;45.630;8.886;2023-05-10T05:55:13;12.50;99.90
34406;DHT22;20658;45.630;8.886;2023-05-10T05:57:46;12.50;99.90
34406;DHT22;20658;45.630;8.886;2023-05-10T06:00:20;12.50;99.90
34406;DHT22;20658;45.630;8.886;2023-05-10T06:02:54;12.60;99.90
34406;DHT22;20658;45.630;8.886;2023-05-10T06:05:28;12.60;99.90
34406;DHT22;20658;45.630;8.886;2023-05-10T06:08:02;12.60;99.90
34406;DHT22;20658;45.630;8.886;2023-05-10T06:10:36;12.60;99.90
34406;DHT22;20658;45.630;8.886;2023-05-10T06:13:10;12.60;99.90
34406;DHT22;20658;45.630;8.886;2023-05-10T06:15:44;12.60;99.90
34406;DHT22;20658;45.630;8.886;2023-05-10T06:18:18;12.60;99.90
34406;DHT22;20658;45.630;8.886;2023-05-10T06:20:51;12.60;99.90
34406;DHT22;20658;45.630;8.886;2023-05-10T06:23:26;12.60;99.90
34406;DHT22;20658;45.630;8.886;2023-05-10T06:25:59;12.70;99.90
34406;DHT22;20658;45.630;8.886;2023-05-10T06:28:32;12.70;99.90
34406;DHT22;20658;45.630;8.886;2023-05-10T06:31:09;12.80;99.90
34406;DHT22;20658;45.630;8.886;2023-05-10T06:33:43;12.80;99.90
34406;DHT22;20658;45.630;8.886;2023-05-10T06:36:16;12.80;99.90
34406;DHT22;20658;45.630;8.886;2023-05-10T06:38:51;12.80;99.90
34406;DHT22;20658;45.630;8.886;2023-05-10T06:41:25;12.90;99.90
34406;DHT22;20658;45.630;8.886;2023-05-10T06:43:58;13.00;99.90
34406;DHT22;20658;45.630;8.886;2023-05-10T06:46:31;13.00;99.90
34406;DHT22;20658;45.630;8.886;2023-05-10T06:49:05;13.00;99.90
34406;DHT22;20658;45.630;8.886;2023-05-10T06:51:38;13.10;99.90
34406;DHT22;20658;45.630;8.886;2023-05-10T06:54:13;13.20;99.90
34406;DHT22;20658;45.630;8.886;2023-05-10T06:56:46;13.20;99.90
34406;DHT22;20658;45.630;8.886;2023-05-10T06:59:19;13.30;99.90
34406;DHT22;20658;45.630;8.886;2023-05-10T07:01:53;13.40;99.90
34406;DHT22;20658;45.630;8.886;2023-05-10T07:04:26;13.50;99.90
34406;DHT22;20658;45.630;8.886;2023-05-10T07:07:00;13.50;99.90
34406;DHT22;20658;45.630;8.886;2023-05-10T07:09:34;13.50;99.90
34406;DHT22;20658;45.630;8.886;2023-05-10T07:12:08;13.50;99.90
34406;DHT22;20658;45.630;8.886;2023-05-10T07:14:41;13.60;99.90
34406;DHT22;20658;45.630;8.886;2023-05-10T07:17:15;13.70;99.90
34406;DHT22;20658;45.630;8.886;2023-05-10T07:19:48;13.80;99.90
34406;DHT22;20658;45.630;8.886;2023-05-10T07:22:22;13.80;99.90
34406;DHT22;20658;45.630;8.886;2023-05-10T07:24:56;13.90;99.90
34406;DHT22;20658;45.630;8.886;2023-05-10T07:27:30;14.10;99.90
34406;DHT22;20658;45.630;8.886;2023-05-10T07:30:05;14.20;99.90
34406;DHT22;20658;45.630;8.886;2023-05-10T07:32:39;14.30;99.90
34406;DHT22;20658;45.630;8.886;2023-05-10T07:35:08;14.30;99.90
34406;DHT22;20658;45.630;8.886;2023-05-10T07:37:42;14.40;99.90
34406;DHT22;20658;45.630;8.886;2023-05-10T07:40:17;14.50;99.90
34406;DHT22;20658;45.630;8.886;2023-05-10T07:42:50;14.50;99.90
34406;DHT22;20658;45.630;8.886;2023-05-10T07:45:24;14.60;99.90
34406;DHT22;20658;45.630;8.886;2023-05-10T07:47:57;14.70;99.90
34406;DHT22;20658;45.630;8.886;2023-05-10T07:50:30;14.80;99.90
34406;DHT22;20658;45.630;8.886;2023-05-10T07:53:04;14.70;99.90
34406;DHT22;20658;45.630;8.886;2023-05-10T07:55:38;14.60;99.90
34406;DHT22;20658;45.630;8.886;2023-05-10T07:58:12;14.70;99.90
34406;DHT22;20658;45.630;8.886;2023-05-10T08:00:45;14.70;99.90
34406;DHT22;20658;45.630;8.886;2023-05-10T08:03:20;14.80;99.90
34406;DHT22;20658;45.630;8.886;2023-05-10T08:05:53;14.80;99.90
34406;DHT22;20658;45.630;8.886;2023-05-10T08:08:27;14.90;99.90
34406;DHT22;20658;45.630;8.886;2023-05-10T08:11:03;15.00;99.80
34406;DHT22;20658;45.630;8.886;2023-05-10T08:13:36;15.00;99.30
34406;DHT22;20658;45.630;8.886;2023-05-10T08:16:10;15.00;99.00
34406;DHT22;20658;45.630;8.886;2023-05-10T08:18:44;15.00;99.50
34406;DHT22;20658;45.630;8.886;2023-05-10T08:21:18;15.10;99.80
34406;DHT22;20658;45.630;8.886;2023-05-10T08:23:52;15.10;99.50
34406;DHT22;20658;45.630;8.886;2023-05-10T08:26:26;15.20;99.00
34406;DHT22;20658;45.630;8.886;2023-05-10T08:29:00;15.20;98.80
34406;DHT22;20658;45.630;8.886;2023-05-10T08:31:33;15.10;98.30
34406;DHT22;20658;45.630;8.886;2023-05-10T08:34:02;15.20;99.10
34406;DHT22;20658;45.630;8.886;2023-05-10T08:36:35;15.30;99.40
34406;DHT22;20658;45.630;8.886;2023-05-10T08:39:08;15.30;98.50
34406;DHT22;20658;45.630;8.886;2023-05-10T08:41:44;15.20;98.00
34406;DHT22;20658;45.630;8.886;2023-05-10T08:44:18;15.30;98.10
34406;DHT22;20658;45.630;8.886;2023-05-10T08:46:53;15.30;98.40
34406;DHT22;20658;45.630;8.886;2023-05-10T08:49:31;15.40;98.10
34406;DHT22;20658;45.630;8.886;2023-05-10T08:52:05;15.50;98.60
34406;DHT22;20658;45.630;8.886;2023-05-10T08:54:40;15.60;97.30
34406;DHT22;20658;45.630;8.886;2023-05-10T08:57:15;15.70;96.50
34406;DHT22;20658;45.630;8.886;2023-05-10T08:59:49;15.80;96.70
34406;DHT22;20658;45.630;8.886;2023-05-10T09:02:23;15.80;96.10
34406;DHT22;20658;45.630;8.886;2023-05-10T09:04:57;15.90;96.50
34406;DHT22;20658;45.630;8.886;2023-05-10T09:07:30;16.10;96.10
34406;DHT22;20658;45.630;8.886;2023-05-10T09:10:05;16.20;96.20
34406;DHT22;20658;45.630;8.886;2023-05-10T09:12:41;16.30;95.70
34406;DHT22;20658;45.630;8.886;2023-05-10T09:15:16;16.30;95.30
34406;DHT22;20658;45.630;8.886;2023-05-10T09:17:51;16.40;95.00
34406;DHT22;20658;45.630;8.886;2023-05-10T09:20:24;16.40;94.40
34406;DHT22;20658;45.630;8.886;2023-05-10T09:22:57;16.40;93.90
34406;DHT22;20658;45.630;8.886;2023-05-10T09:25:31;16.30;93.90
34406;DHT22;20658;45.630;8.886;2023-05-10T09:28:10;16.30;94.20
34406;DHT22;20658;45.630;8.886;2023-05-10T09:30:53;16.30;92.90
34406;DHT22;20658;45.630;8.886;2023-05-10T09:33:27;16.50;93.80
34406;DHT22;20658;45.630;8.886;2023-05-10T09:36:06;16.50;93.50
34406;DHT22;20658;45.630;8.886;2023-05-10T09:38:48;16.40;92.40
34406;DHT22;20658;45.630;8.886;2023-05-10T09:41:18;16.30;93.30
34406;DHT22;20658;45.630;8.886;2023-05-10T09:43:50;16.30;93.80
34406;DHT22;20658;45.630;8.886;2023-05-10T09:46:28;16.40;94.10
34406;DHT22;20658;45.630;8.886;2023-05-10T09:49:02;16.50;92.60
34406;DHT22;20658;45.630;8.886;2023-05-10T09:51:30;16.70;93.50
34406;DHT22;20658;45.630;8.886;2023-05-10T09:54:12;16.80;93.10
34406;DHT22;20658;45.630;8.886;2023-05-10T09:56:47;17.20;92.90
34406;DHT22;20658;45.630;8.886;2023-05-10T09:59:21;17.20;91.10
34406;DHT22;20658;45.630;8.886;2023-05-10T10:01:53;17.40;91.60
34406;DHT22;20658;45.630;8.886;2023-05-10T10:04:28;17.50;91.00
34406;DHT22;20658;45.630;8.886;2023-05-10T10:07:04;17.60;91.00
34406;DHT22;20658;45.630;8.886;2023-05-10T10:09:34;17.50;90.60
34406;DHT22;20658;45.630;8.886;2023-05-10T10:12:07;17.30;91.30
34406;DHT22;20658;45.630;8.886;2023-05-10T10:14:43;17.20;91.30
34406;DHT22;20658;45.630;8.886;2023-05-10T10:17:17;17.20;91.60
34406;DHT22;20658;45.630;8.886;2023-05-10T10:19:52;17.00;91.40
34406;DHT22;20658;45.630;8.886;2023-05-10T10:22:21;17.00;91.70
34406;DHT22;20658;45.630;8.886;2023-05-10T10:24:55;16.80;92.40
34406;DHT22;20658;45.630;8.886;2023-05-10T10:27:26;16.70;92.80
34406;DHT22;20658;45.630;8.886;2023-05-10T10:30:23;16.60;93.60
34406;DHT22;20658;45.630;8.886;2023-05-10T10:33:13;16.60;93.90
34406;DHT22;20658;45.630;8.886;2023-05-10T10:36:04;16.40;94.40
34406;DHT22;20658;45.630;8.886;2023-05-10T10:38:56;16.10;94.40
34406;DHT22;20658;45.630;8.886;2023-05-10T10:41:33;16.00;95.80
34406;DHT22;20658;45.630;8.886;2023-05-10T10:47:23;16.10;96.30
34406;DHT22;20658;45.630;8.886;2023-05-10T10:50:04;16.00;95.80
34406;DHT22;20658;45.630;8.886;2023-05-10T10:52:39;15.90;95.60
34406;DHT22;20658;45.630;8.886;2023-05-10T10:55:14;15.90;95.50
34406;DHT22;20658;45.630;8.886;2023-05-10T10:57:51;15.80;95.80
34406;DHT22;20658;45.630;8.886;2023-05-10T11:00:35;15.90;96.50
34406;DHT22;20658;45.630;8.886;2023-05-10T11:03:11;15.90;96.30
34406;DHT22;20658;45.630;8.886;2023-05-10T11:05:47;16.00;96.40
34406;DHT22;20658;45.630;8.886;2023-05-10T11:08:26;16.00;96.40
34406;DHT22;20658;45.630;8.886;2023-05-10T11:11:04;16.00;95.80
34406;DHT22;20658;45.630;8.886;2023-05-10T11:13:43;16.00;96.20
34406;DHT22;20658;45.630;8.886;2023-05-10T11:16:16;16.00;96.30
34406;DHT22;20658;45.630;8.886;2023-05-10T11:19:00;16.10;96.60
34406;DHT22;20658;45.630;8.886;2023-05-10T11:21:45;16.10;95.40
34406;DHT22;20658;45.630;8.886;2023-05-10T11:24:21;16.10;95.20
34406;DHT22;20658;45.630;8.886;2023-05-10T11:26:51;16.10;94.90
34406;DHT22;20658;45.630;8.886;2023-05-10T11:29:24;16.30;95.70
34406;DHT22;20658;45.630;8.886;2023-05-10T11:31:59;16.40;94.70
34406;DHT22;20658;45.630;8.886;2023-05-10T11:34:33;16.60;94.50
34406;DHT22;20658;45.630;8.886;2023-05-10T11:37:07;16.80;93.40
34406;DHT22;20658;45.630;8.886;2023-05-10T11:39:45;17.10;92.10
34406;DHT22;20658;45.630;8.886;2023-05-10T11:42:19;17.30;90.40
34406;DHT22;20658;45.630;8.886;2023-05-10T11:44:48;17.40;90.30
34406;DHT22;20658;45.630;8.886;2023-05-10T11:47:21;17.60;89.20
34406;DHT22;20658;45.630;8.886;2023-05-10T11:49:57;18.00;88.10
34406;DHT22;20658;45.630;8.886;2023-05-10T11:52:35;18.20;86.10
34406;DHT22;20658;45.630;8.886;2023-05-10T11:55:09;18.40;86.10
34406;DHT22;20658;45.630;8.886;2023-05-10T11:57:42;18.40;84.50
34406;DHT22;20658;45.630;8.886;2023-05-10T12:00:17;18.40;84.10
34406;DHT22;20658;45.630;8.886;2023-05-10T12:02:51;18.60;84.40
34406;DHT22;20658;45.630;8.886;2023-05-10T12:05:26;18.50;84.00
34406;DHT22;20658;45.630;8.886;2023-05-10T12:08:13;18.20;84.10
34406;DHT22;20658;45.630;8.886;2023-05-10T12:10:41;17.90;86.00
34406;DHT22;20658;45.630;8.886;2023-05-10T12:13:15;17.80;86.10
34406;DHT22;20658;45.630;8.886;2023-05-10T12:15:48;17.90;86.70
34406;DHT22;20658;45.630;8.886;2023-05-10T12:18:23;18.10;85.60
34406;DHT22;20658;45.630;8.886;2023-05-10T12:21:03;18.40;84.50
34406;DHT22;20658;45.630;8.886;2023-05-10T12:23:32;18.80;82.80
34406;DHT22;20658;45.630;8.886;2023-05-10T12:26:02;19.00;81.20
34406;DHT22;20658;45.630;8.886;2023-05-10T12:28:37;19.30;79.10
34406;DHT22;20658;45.630;8.886;2023-05-10T12:31:11;19.60;78.10
34406;DHT22;20658;45.630;8.886;2023-05-10T12:33:45;20.00;76.70
34406;DHT22;20658;45.630;8.886;2023-05-10T12:36:23;20.50;73.50
34406;DHT22;20658;45.630;8.886;2023-05-10T12:39:02;20.50;71.00
34406;DHT22;20658;45.630;8.886;2023-05-10T12:41:31;20.90;70.40
34406;DHT22;20658;45.630;8.886;2023-05-10T12:44:05;21.40;67.40
34406;DHT22;20658;45.630;8.886;2023-05-10T12:46:38;21.70;68.50
34406;DHT22;20658;45.630;8.886;2023-05-10T12:49:11;21.80;66.60
34406;DHT22;20658;45.630;8.886;2023-05-10T12:51:46;21.40;67.60
34406;DHT22;20658;45.630;8.886;2023-05-10T12:54:19;21.70;68.20
34406;DHT22;20658;45.630;8.886;2023-05-10T12:56:53;21.80;67.60
34406;DHT22;20658;45.630;8.886;2023-05-10T12:59:21;21.80;67.10
34406;DHT22;20658;45.630;8.886;2023-05-10T13:01:50;21.60;66.50
34406;DHT22;20658;45.630;8.886;2023-05-10T13:04:23;21.60;67.50
34406;DHT22;20658;45.630;8.886;2023-05-10T13:06:58;21.70;67.60
34406;DHT22;20658;45.630;8.886;2023-05-10T13:09:31;21.40;66.40
34406;DHT22;20658;45.630;8.886;2023-05-10T13:12:05;21.60;67.10
34406;DHT22;20658;45.630;8.886;2023-05-10T13:14:39;22.00;67.10
34406;DHT22;20658;45.630;8.886;2023-05-10T13:17:08;22.50;65.90
34406;DHT22;20658;45.630;8.886;2023-05-10T13:19:36;22.40;64.70
34406;DHT22;20658;45.630;8.886;2023-05-10T13:22:11;22.60;63.20
34406;DHT22;20658;45.630;8.886;2023-05-10T13:24:44;22.50;63.20
34406;DHT22;20658;45.630;8.886;2023-05-10T13:27:18;22.20;63.60
34406;DHT22;20658;45.630;8.886;2023-05-10T13:29:51;21.80;65.20
34406;DHT22;20658;45.630;8.886;2023-05-10T13:32:24;21.80;66.30
34406;DHT22;20658;45.630;8.886;2023-05-10T13:34:58;21.60;65.50
34406;DHT22;20658;45.630;8.886;2023-05-10T13:37:28;21.50;65.40
34406;DHT22;20658;45.630;8.886;2023-05-10T13:40:01;21.30;64.40
34406;DHT22;20658;45.630;8.886;2023-05-10T13:42:35;21.40;66.10
34406;DHT22;20658;45.630;8.886;2023-05-10T13:45:09;21.60;65.40
34406;DHT22;20658;45.630;8.886;2023-05-10T13:47:44;21.70;64.20
34406;DHT22;20658;45.630;8.886;2023-05-10T13:50:18;21.90;66.00
34406;DHT22;20658;45.630;8.886;2023-05-10T13:52:52;21.90;64.20
34406;DHT22;20658;45.630;8.886;2023-05-10T13:55:26;22.10;65.10
34406;DHT22;20658;45.630;8.886;2023-05-10T13:57:55;22.40;62.70
34406;DHT22;20658;45.630;8.886;2023-05-10T14:00:28;22.80;61.30
34406;DHT22;20658;45.630;8.886;2023-05-10T14:03:02;23.30;60.20
34406;DHT22;20658;45.630;8.886;2023-05-10T14:05:36;23.30;58.50
34406;DHT22;20658;45.630;8.886;2023-05-10T14:08:06;23.00;59.50
34406;DHT22;20658;45.630;8.886;2023-05-10T14:10:36;22.80;60.90
34406;DHT22;20658;45.630;8.886;2023-05-10T14:13:09;22.80;61.90
34406;DHT22;20658;45.630;8.886;2023-05-10T14:15:43;22.70;61.90
34406;DHT22;20658;45.630;8.886;2023-05-10T14:18:16;22.50;62.50
34406;DHT22;20658;45.630;8.886;2023-05-10T14:20:44;22.30;63.10
34406;DHT22;20658;45.630;8.886;2023-05-10T14:23:14;22.20;63.60
34406;DHT22;20658;45.630;8.886;2023-05-10T14:25:42;22.20;62.50
34406;DHT22;20658;45.630;8.886;2023-05-10T14:28:16;22.00;63.30
34406;DHT22;20658;45.630;8.886;2023-05-10T14:30:46;22.00;63.30
34406;DHT22;20658;45.630;8.886;2023-05-10T14:33:19;22.00;62.80
34406;DHT22;20658;45.630;8.886;2023-05-10T14:35:48;22.10;62.10
34406;DHT22;20658;45.630;8.886;2023-05-10T14:38:23;22.30;61.40
34406;DHT22;20658;45.630;8.886;2023-05-10T14:40:56;22.40;62.10
34406;DHT22;20658;45.630;8.886;2023-05-10T14:43:30;22.10;62.10
34406;DHT22;20658;45.630;8.886;2023-05-10T14:46:04;21.80;62.30
34406;DHT22;20658;45.630;8.886;2023-05-10T14:48:37;21.60;63.70
34406;DHT22;20658;45.630;8.886;2023-05-10T14:51:06;21.60;62.70
34406;DHT22;20658;45.630;8.886;2023-05-10T14:53:36;21.30;64.30
34406;DHT22;20658;45.630;8.886;2023-05-10T14:56:09;21.20;65.10
34406;DHT22;20658;45.630;8.886;2023-05-10T14:58:42;21.00;65.20
34406;DHT22;20658;45.630;8.886;2023-05-10T15:01:16;21.00;66.40
34406;DHT22;20658;45.630;8.886;2023-05-10T15:03:49;20.90;66.20
34406;DHT22;20658;45.630;8.886;2023-05-10T15:06:23;20.80;66.60
34406;DHT22;20658;45.630;8.886;2023-05-10T15:09:00;21.10;67.40
34406;DHT22;20658;45.630;8.886;2023-05-10T15:11:35;21.00;66.10
34406;DHT22;20658;45.630;8.886;2023-05-10T15:14:04;20.90;66.40
34406;DHT22;20658;45.630;8.886;2023-05-10T15:16:37;20.60;66.20
34406;DHT22;20658;45.630;8.886;2023-05-10T15:19:11;20.80;66.70
34406;DHT22;20658;45.630;8.886;2023-05-10T15:21:39;20.90;66.00
34406;DHT22;20658;45.630;8.886;2023-05-10T15:24:15;21.40;65.10
34406;DHT22;20658;45.630;8.886;2023-05-10T15:26:49;22.00;63.00
34406;DHT22;20658;45.630;8.886;2023-05-10T15:29:22;21.50;62.80
34406;DHT22;20658;45.630;8.886;2023-05-10T15:31:56;21.00;65.00
34406;DHT22;20658;45.630;8.886;2023-05-10T15:34:29;20.70;65.80
34406;DHT22;20658;45.630;8.886;2023-05-10T15:36:58;20.30;66.70
34406;DHT22;20658;45.630;8.886;2023-05-10T15:39:27;20.10;68.20
34406;DHT22;20658;45.630;8.886;2023-05-10T15:42:01;20.00;69.30
34406;DHT22;20658;45.630;8.886;2023-05-10T15:44:30;20.00;69.70
34406;DHT22;20658;45.630;8.886;2023-05-10T15:47:00;20.00;69.50
34406;DHT22;20658;45.630;8.886;2023-05-10T15:49:34;20.00;70.20
34406;DHT22;20658;45.630;8.886;2023-05-10T15:52:07;19.80;69.60
34406;DHT22;20658;45.630;8.886;2023-05-10T15:54:37;19.60;70.30
34406;DHT22;20658;45.630;8.886;2023-05-10T15:57:10;19.50;71.00
34406;DHT22;20658;45.630;8.886;2023-05-10T15:59:44;19.30;71.00
34406;DHT22;20658;45.630;8.886;2023-05-10T16:02:17;19.30;71.40
34406;DHT22;20658;45.630;8.886;2023-05-10T16:04:51;19.20;72.00
34406;DHT22;20658;45.630;8.886;2023-05-10T16:07:19;19.10;72.50
34406;DHT22;20658;45.630;8.886;2023-05-10T16:09:54;19.00;73.00
34406;DHT22;20658;45.630;8.886;2023-05-10T16:12:27;19.00;73.60